Antalya, Turcja

09:43 EEST dnia 25-lipiec-2014 (GMT +0300)
Antalya (LTAI) Wysokość 174 ft | 36.90 °N, 30.80 °E | Change Station

Current weather conditions updated 23 minutes ago

Clear
pogodnie
81 ° F
Odczuwalna 84 ° F
Płn.
6
Wiatr zmienny Wiatr od PdPdWs

Prognoza na dziś: Cieplej niż wczoraj.

Dziś
Wysoka -- | Niska -- ° F
--% Prawdop. opadów
Wczoraj
Wysoka -- | Niska -- ° F
Precip. -- cali
5:56 AM 8:10 PM
Zmniejszający się sierp Księżyca, 3% visible
Ciśnienie 29.68 cali
Widzialność -9999.0 mil
chmury
Odczucie gorąca 84 ° F
Punkt rosy 70 ° F
Wilgotność 70%
Opady deszczu 0.00 cali
grubość pokrywy śnieżnej Niedostępne.
UV Niedostępne.
Pyłki Niedostępne.
Jakość powietrza Niedostępne.
Flu Activity Niedostępne.
METAR LTAI 250620Z 16005KT 120V200 CAVOK 27/21 Q1005 NOSIG RMK RWY18C VRB04KT RWY36R 15004KT 100V210 RWY18L 14004KT 080V200

More Conditions Fewer Conditions

Ciśnienie 29.68 cali
Widzialność -9999.0 mil
chmury
Odczucie gorąca 84 ° F
Punkt rosy 70 ° F
Wilgotność 70%
Opady deszczu 0.00 cali
grubość pokrywy śnieżnej Niedostępne.
UV Niedostępne.
Pyłki Niedostępne.
Jakość powietrza Niedostępne.
Flu Activity Niedostępne.
METAR LTAI 250620Z 16005KT 120V200 CAVOK 27/21 Q1005 NOSIG RMK RWY18C VRB04KT RWY36R 15004KT 100V210 RWY18L 14004KT 080V200

More Conditions Fewer Conditions

10-Day Weather Forecast

Almanac

Astronomia

Jul. 25, 2014 Wschód Zachów
Aktualny czas 05:56 EEST 20:10 EEST
Zmierzch cywilny 05:27 EEST 20:39 EEST
Zmierzch żeglarski 04:51 EEST 21:14 EEST
świt/zmierzch astronomiczny 04:12 EEST 21:53 EEST
Księżyc 04:37 EEST 18:54 EEST
całkowite oświetlenie 15h 11m
Długość dnia
14h 13m
Tomorrow will be 1m 33s shorter.
Zmniejszający się sierp Księżyca, 3% of the Moon is Illuminated
Dziś
Zmniejszający się sierp Księżyca
Lipiec 26
Nowy
Sierpień 3
Pierwsza kwadra
Sierpień 10
Pełnia Księżyca
Sierpień 17
Ostatnia kwadra

Wczorajsze ekstrema

Country Highs Country Lows

Community

WunderPhotos

Upload Photos

1,737,265 zdjęcia zostały przesłane!

Nearby

Jakość powietrza

Not available.

Głębokość pokrywy śnieżnej

Not available.

Aktywność sejsmiczna

Miejscowość Distance Mag. Time & Date
No recent earthquake activity has been reported nearby.
Minimum magnitude displayed is 2.5.

Temperatury wody na wybrzeżu

Miejsce Temperatura
Nie znaleziono stacji

Najbliższa stacja pogodowa

Brak stacji PWS w tym obszarze.